Time;durP1;ratioP1;P1;durP2;ratioP2;P2;SDS_P1;SDS_P2;PMS_P1;PMS_P2;Temp;Humidity;BMP_temperature;BMP_pressure;BME280_temperature;BME280_humidity;BME280_pressure;Samples;Min_cycle;Max_cycle;Signal;HPM_P1;HPM_P2
2022/04/05 00:00:57;;;;;;;;;;;20.90;99.90;;;;;;5055046;28;20087;-68
2022/04/05 00:03:23;;;;;;;;;;;21.00;99.90;;;;;;5054651;28;20387;-69
2022/04/05 00:05:50;;;;;;;;;;;21.00;99.90;;;;;;5054887;28;20382;-69
2022/04/05 00:08:17;;;;;;;;;;;21.10;99.90;;;;;;5054582;28;19909;-69
2022/04/05 00:10:44;;;;;;;;;;;21.10;99.90;;;;;;5054641;28;19913;-69
2022/04/05 00:13:10;;;;;;;;;;;21.10;99.90;;;;;;5054868;28;20368;-69
2022/04/05 00:15:37;;;;;;;;;;;21.10;99.90;;;;;;5054922;28;19909;-69
2022/04/05 00:18:04;;;;;;;;;;;21.10;99.90;;;;;;5054616;28;19916;-69
2022/04/05 00:20:31;;;;;;;;;;;21.20;99.90;;;;;;5054416;28;19915;-69
2022/04/05 00:23:01;;;;;;;;;;;21.30;99.90;;;;;;5053833;28;19909;-69
2022/04/05 00:25:27;;;;;;;;;;;21.40;99.90;;;;;;5054334;28;19909;-69
2022/04/05 00:27:54;;;;;;;;;;;21.50;99.90;;;;;;5054875;28;19908;-69
2022/04/05 00:30:20;;;;;;;;;;;21.70;99.90;;;;;;5074810;28;20335;-68
2022/04/05 00:32:47;;;;;;;;;;;21.70;99.90;;;;;;5075045;28;19958;-68
2022/04/05 00:35:14;;;;;;;;;;;21.60;99.90;;;;;;5074918;28;19976;-69
2022/04/05 00:37:41;;;;;;;;;;;21.60;99.90;;;;;;5075070;28;19915;-69
2022/04/05 00:40:09;;;;;;;;;;;21.70;99.90;;;;;;5067842;28;20011;-69
2022/04/05 00:42:38;;;;;;;;;;;21.80;99.90;;;;;;5062961;28;19912;-70
2022/04/05 00:45:05;;;;;;;;;;;21.90;99.90;;;;;;5054056;28;20266;-69
2022/04/05 00:47:32;;;;;;;;;;;21.90;99.90;;;;;;5054174;28;19915;-69
2022/04/05 00:49:59;;;;;;;;;;;22.00;99.90;;;;;;5054095;28;19963;-69
2022/04/05 00:52:27;;;;;;;;;;;22.00;99.90;;;;;;5053704;28;19916;-69
2022/04/05 00:54:54;;;;;;;;;;;22.10;99.90;;;;;;5053974;28;19916;-69
2022/04/05 00:57:24;;;;;;;;;;;22.00;99.90;;;;;;5054062;28;19909;-69
2022/04/05 00:59:58;;;;;;;;;;;22.10;99.90;;;;;;5053965;28;19995;-69
2022/04/05 01:02:27;;;;;;;;;;;22.30;99.90;;;;;;5053690;28;19915;-69
2022/04/05 01:04:54;;;;;;;;;;;22.40;99.90;;;;;;5053854;28;19927;-70
2022/04/05 01:07:22;;;;;;;;;;;22.40;99.90;;;;;;5053870;28;19909;-70
2022/04/05 01:09:56;;;;;;;;;;;22.50;99.90;;;;;;5053531;28;20007;-70
2022/04/05 01:12:22;;;;;;;;;;;22.50;99.90;;;;;;5053367;28;19917;-69
2022/04/05 01:14:50;;;;;;;;;;;22.60;99.90;;;;;;5053588;28;20315;-70
2022/04/05 01:17:16;;;;;;;;;;;22.60;99.90;;;;;;5053533;28;20433;-70
2022/04/05 01:19:44;;;;;;;;;;;22.80;99.90;;;;;;5069617;28;19920;-70
2022/04/05 01:22:10;;;;;;;;;;;22.90;99.60;;;;;;5072878;28;19936;-69
2022/04/05 01:24:37;;;;;;;;;;;23.20;99.40;;;;;;5071846;28;19912;-70
2022/04/05 01:27:06;;;;;;;;;;;23.50;98.50;;;;;;5052830;28;19915;-70
2022/04/05 01:29:33;;;;;;;;;;;23.70;98.50;;;;;;5051245;28;20003;-70
2022/04/05 01:32:01;;;;;;;;;;;23.90;98.10;;;;;;5051301;28;19917;-70
2022/04/05 01:34:29;;;;;;;;;;;23.90;98.20;;;;;;5050256;28;19916;-70
2022/04/05 01:36:57;;;;;;;;;;;24.00;98.40;;;;;;5051129;28;20453;-71
2022/04/05 01:39:28;;;;;;;;;;;24.00;97.80;;;;;;5049658;28;19913;-70
2022/04/05 01:41:59;;;;;;;;;;;23.80;98.20;;;;;;5051035;28;20061;-70
2022/04/05 01:44:27;;;;;;;;;;;23.90;98.50;;;;;;5052687;28;19995;-70
2022/04/05 01:46:54;;;;;;;;;;;23.70;98.30;;;;;;5053006;28;19909;-70
2022/04/05 01:49:21;;;;;;;;;;;23.70;98.30;;;;;;5052942;28;19932;-70
2022/04/05 02:03:56;;;;;;;;;;;23.60;98.70;;;;;;5151286;27;19985;-69
2022/04/05 02:06:23;;;;;;;;;;;23.40;99.20;;;;;;5150880;27;20334;-68
2022/04/05 02:08:50;;;;;;;;;;;23.40;99.30;;;;;;5151234;27;19953;-68
2022/04/05 02:11:17;;;;;;;;;;;23.30;99.50;;;;;;5150717;27;19931;-69
2022/04/05 02:13:43;;;;;;;;;;;23.30;99.60;;;;;;5150776;27;19964;-68
2022/04/05 02:16:10;;;;;;;;;;;23.50;99.60;;;;;;5150874;27;20068;-69
2022/04/05 02:18:37;;;;;;;;;;;23.50;99.80;;;;;;5151270;27;19990;-68
2022/04/05 02:21:05;;;;;;;;;;;23.50;99.80;;;;;;5150603;27;20345;-68
2022/04/05 02:23:31;;;;;;;;;;;23.50;99.90;;;;;;5150361;27;20340;-68
2022/04/05 02:25:58;;;;;;;;;;;23.60;99.90;;;;;;5150000;27;19911;-68
2022/04/05 02:28:25;;;;;;;;;;;23.60;99.90;;;;;;5150523;27;19915;-68
2022/04/05 02:30:52;;;;;;;;;;;23.80;99.90;;;;;;5150629;27;19967;-68
2022/04/05 02:33:20;;;;;;;;;;;23.90;99.90;;;;;;5150591;27;19923;-68
2022/04/05 02:35:48;;;;;;;;;;;23.80;99.90;;;;;;5150226;27;19908;-68
2022/04/05 02:38:15;;;;;;;;;;;23.90;99.90;;;;;;5150372;27;19998;-68
2022/04/05 02:40:41;;;;;;;;;;;23.90;99.90;;;;;;5150712;27;20002;-68
2022/04/05 02:43:08;;;;;;;;;;;23.60;99.90;;;;;;5150396;27;20349;-69
2022/04/05 02:45:35;;;;;;;;;;;23.60;99.90;;;;;;5150215;27;19907;-68
2022/04/05 02:48:02;;;;;;;;;;;23.60;99.90;;;;;;5150348;27;19911;-67
2022/04/05 02:50:29;;;;;;;;;;;23.70;99.90;;;;;;5150312;27;19912;-68
2022/04/05 02:52:56;;;;;;;;;;;23.80;99.90;;;;;;5149563;27;19923;-68
2022/04/05 02:55:23;;;;;;;;;;;24.00;99.90;;;;;;5149902;27;19960;-69
2022/04/05 02:57:52;;;;;;;;;;;24.00;99.90;;;;;;5150202;27;19907;-69
2022/04/05 03:00:19;;;;;;;;;;;24.00;99.90;;;;;;5150159;27;19908;-69
2022/04/05 03:02:46;;;;;;;;;;;24.20;99.90;;;;;;5148518;27;19958;-69
2022/04/05 03:05:19;;;;;;;;;;;24.10;99.90;;;;;;5135345;27;19918;-69
2022/04/05 03:07:45;;;;;;;;;;;23.90;99.90;;;;;;5136227;27;20562;-69
2022/04/05 03:10:12;;;;;;;;;;;24.00;99.90;;;;;;5136060;27;19951;-69
2022/04/05 03:12:39;;;;;;;;;;;24.10;99.90;;;;;;5136038;27;19916;-69
2022/04/05 03:15:07;;;;;;;;;;;24.10;99.90;;;;;;5135661;27;20381;-69
2022/04/05 03:17:34;;;;;;;;;;;24.10;99.90;;;;;;5136152;27;19959;-68
2022/04/05 03:20:01;;;;;;;;;;;24.00;99.90;;;;;;5135733;27;19952;-69
2022/04/05 03:22:28;;;;;;;;;;;24.10;99.90;;;;;;5135591;27;19915;-69
2022/04/05 03:24:54;;;;;;;;;;;24.10;99.90;;;;;;5135039;27;19908;-68
2022/04/05 03:27:21;;;;;;;;;;;24.10;99.90;;;;;;5135796;27;19908;-68
